createdAt,value
2018-12-19T00:00:24.599Z,4.25
2018-12-19T00:02:52.032Z,5.37
2018-12-19T00:05:19.482Z,5.15
2018-12-19T00:07:46.850Z,4.10
2018-12-19T00:10:14.242Z,4.50
2018-12-19T00:12:41.619Z,5.12
2018-12-19T00:15:09.034Z,5.28
2018-12-19T00:17:36.410Z,4.65
2018-12-19T00:20:05.335Z,4.95
2018-12-19T00:22:32.711Z,4.70
2018-12-19T00:25:00.322Z,4.50
2018-12-19T00:27:27.711Z,4.95
2018-12-19T00:29:55.098Z,4.80
2018-12-19T00:32:22.471Z,4.83
2018-12-19T00:34:49.842Z,3.80
2018-12-19T00:37:17.218Z,4.10
2018-12-19T00:39:44.618Z,4.40
2018-12-19T00:42:12.017Z,5.25
2018-12-19T00:44:39.479Z,4.15
2018-12-19T00:47:06.846Z,5.47
2018-12-19T00:49:34.250Z,4.92
2018-12-19T00:52:01.632Z,4.00
2018-12-19T00:54:28.998Z,4.35
2018-12-19T00:56:56.390Z,4.25
2018-12-19T00:59:23.757Z,4.03
2018-12-19T01:01:51.153Z,4.87
2018-12-19T01:04:18.526Z,4.90
2018-12-19T01:06:45.894Z,4.65
2018-12-19T01:09:16.019Z,5.03
2018-12-19T01:11:42.686Z,4.75
2018-12-19T01:14:10.063Z,4.42
2018-12-19T01:16:37.430Z,5.28
2018-12-19T01:19:04.830Z,4.12
2018-12-19T01:21:32.225Z,4.03
2018-12-19T01:23:59.608Z,4.65
2018-12-19T01:26:26.998Z,4.95
2018-12-19T01:28:54.370Z,4.62
2018-12-19T01:31:21.742Z,4.58
2018-12-19T01:33:49.132Z,4.00
2018-12-19T01:36:16.589Z,4.10
2018-12-19T01:38:44.076Z,4.53
2018-12-19T01:41:11.458Z,4.80
2018-12-19T01:43:38.834Z,4.53
2018-12-19T01:46:06.204Z,5.30
2018-12-19T01:48:33.585Z,4.15
2018-12-19T01:51:00.974Z,4.10
2018-12-19T01:53:28.350Z,4.55
2018-12-19T01:55:56.135Z,4.78
2018-12-19T01:58:23.515Z,4.87
2018-12-19T02:00:50.886Z,3.98
2018-12-19T02:03:18.302Z,4.15
2018-12-19T02:05:45.702Z,4.62
2018-12-19T02:08:13.070Z,4.75
2018-12-19T02:10:40.470Z,4.47
2018-12-19T02:13:07.860Z,4.12
2018-12-19T02:15:35.243Z,4.60
2018-12-19T02:18:02.622Z,6.10
2018-12-19T02:20:30.002Z,4.78
2018-12-19T02:22:57.404Z,4.83
2018-12-19T02:25:24.863Z,5.45
2018-12-19T02:27:52.234Z,5.65
2018-12-19T02:30:19.652Z,4.50
2018-12-19T02:32:47.101Z,4.40
2018-12-19T02:35:14.505Z,4.62
2018-12-19T02:37:41.878Z,3.90
2018-12-19T02:40:09.355Z,4.17
2018-12-19T02:42:36.746Z,3.87
2018-12-19T02:45:04.664Z,5.37
2018-12-19T02:47:32.066Z,4.10
2018-12-19T02:49:59.442Z,5.40
2018-12-19T02:52:26.810Z,5.62
2018-12-19T02:54:54.191Z,5.05
2018-12-19T02:57:21.576Z,4.90
2018-12-19T02:59:48.975Z,5.20
2018-12-19T03:02:16.422Z,4.60
2018-12-19T03:04:43.814Z,4.60
2018-12-19T03:07:11.251Z,4.72
2018-12-19T03:09:42.970Z,5.55
2018-12-19T03:12:07.988Z,4.45
2018-12-19T03:14:35.363Z,4.97
2018-12-19T03:17:02.750Z,4.50
2018-12-19T03:19:30.135Z,5.28
2018-12-19T03:21:57.514Z,4.97
2018-12-19T03:24:24.885Z,4.72
2018-12-19T03:26:52.278Z,4.20
2018-12-19T03:29:19.656Z,4.67
2018-12-19T03:31:47.028Z,4.90
2018-12-19T03:34:14.419Z,3.95
2018-12-19T03:36:41.810Z,5.03
2018-12-19T03:39:09.192Z,4.75
2018-12-19T03:41:36.674Z,4.10
2018-12-19T03:44:04.107Z,4.70
2018-12-19T03:46:31.567Z,4.67
2018-12-19T03:48:58.966Z,4.17
2018-12-19T03:51:26.449Z,4.67
2018-12-19T03:53:54.249Z,4.87
2018-12-19T03:56:21.645Z,4.65
2018-12-19T03:58:49.022Z,3.35
2018-12-19T04:01:16.395Z,3.92
2018-12-19T04:03:43.769Z,4.83
2018-12-19T04:06:11.181Z,5.05
2018-12-19T04:08:38.623Z,5.08
2018-12-19T04:11:06.097Z,3.62
2018-12-19T04:13:33.471Z,4.95
2018-12-19T04:16:00.943Z,4.25
2018-12-19T04:18:28.420Z,5.35
2018-12-19T04:20:55.886Z,5.25
2018-12-19T04:23:23.337Z,3.85
2018-12-19T04:25:50.791Z,4.47
2018-12-19T04:28:18.166Z,5.30
2018-12-19T04:30:45.622Z,4.42
2018-12-19T04:33:12.995Z,3.85
2018-12-19T04:35:40.689Z,5.80
2018-12-19T04:38:08.063Z,4.55
2018-12-19T04:40:35.472Z,5.00
2018-12-19T04:43:02.916Z,4.45
2018-12-19T04:45:30.289Z,4.17
2018-12-19T04:47:57.678Z,5.62
2018-12-19T04:50:25.059Z,5.25
2018-12-19T04:52:52.432Z,4.22
2018-12-19T04:55:19.807Z,4.53
2018-12-19T04:57:47.179Z,4.42
2018-12-19T05:00:14.584Z,4.37
2018-12-19T05:02:42.041Z,5.15
2018-12-19T05:05:09.416Z,4.78
2018-12-19T05:07:36.786Z,5.22
2018-12-19T05:10:04.501Z,4.40
2018-12-19T05:12:31.894Z,4.78
2018-12-19T05:14:59.270Z,4.15
2018-12-19T05:17:26.651Z,4.67
2018-12-19T05:19:54.446Z,3.90
2018-12-19T05:22:21.818Z,4.62
2018-12-19T05:24:49.194Z,3.87
2018-12-19T05:27:16.576Z,3.70
2018-12-19T05:29:43.953Z,3.70
2018-12-19T05:32:11.387Z,5.12
2018-12-19T05:34:38.784Z,4.55
2018-12-19T05:37:06.192Z,4.25
2018-12-19T05:39:33.570Z,5.17
2018-12-19T05:42:00.976Z,4.53
2018-12-19T05:44:28.351Z,5.30
2018-12-19T05:46:55.754Z,5.10
2018-12-19T05:49:23.151Z,4.92
2018-12-19T05:51:50.613Z,6.35
2018-12-19T05:54:18.000Z,5.65
2018-12-19T05:56:45.377Z,4.87
2018-12-19T05:59:12.751Z,4.92
2018-12-19T06:01:40.318Z,5.45
2018-12-19T06:04:07.715Z,4.95
2018-12-19T06:06:35.102Z,5.75
2018-12-19T06:09:02.494Z,5.80
2018-12-19T06:11:29.885Z,5.30
2018-12-19T06:13:57.266Z,5.35
2018-12-19T06:16:24.644Z,6.47
2018-12-19T06:18:52.083Z,6.28
2018-12-19T06:21:19.462Z,5.37
2018-12-19T06:23:46.859Z,5.45
2018-12-19T06:26:14.342Z,5.67
2018-12-19T06:28:41.723Z,5.80
2018-12-19T06:31:09.098Z,6.35
2018-12-19T06:33:36.991Z,4.80
2018-12-19T06:36:04.491Z,5.70
2018-12-19T06:38:31.870Z,5.60
2018-12-19T06:40:59.354Z,5.72
2018-12-19T06:43:26.737Z,5.92
2018-12-19T06:45:54.116Z,5.67
2018-12-19T06:48:21.514Z,5.47
2018-12-19T06:50:48.910Z,5.65
2018-12-19T06:53:16.306Z,6.87
2018-12-19T06:55:43.692Z,5.55
2018-12-19T06:58:11.070Z,6.53
2018-12-19T07:00:38.507Z,5.72
2018-12-19T07:03:05.887Z,6.15
2018-12-19T07:05:33.280Z,7.53
2018-12-19T07:08:00.731Z,6.33
2018-12-19T07:10:28.114Z,6.72
2018-12-19T07:12:55.596Z,7.53
2018-12-19T07:15:22.970Z,6.40
2018-12-19T07:17:50.362Z,7.00
2018-12-19T07:20:17.734Z,5.17
2018-12-19T07:22:45.114Z,5.97
2018-12-19T07:25:12.574Z,6.30
2018-12-19T07:27:39.963Z,5.75
2018-12-19T07:30:07.880Z,7.20
2018-12-19T07:32:35.369Z,6.87
2018-12-19T07:35:02.759Z,7.67
2018-12-19T07:37:30.134Z,8.05
2018-12-19T07:39:57.520Z,6.65
2018-12-19T07:42:24.899Z,5.40
2018-12-19T07:44:52.274Z,5.37
2018-12-19T07:47:19.682Z,6.17
2018-12-19T07:49:47.058Z,5.70
2018-12-19T07:52:14.438Z,6.70
2018-12-19T07:54:41.830Z,6.08
2018-12-19T07:57:09.217Z,6.17
2018-12-19T07:59:36.603Z,6.17
2018-12-19T08:02:04.014Z,6.22
2018-12-19T08:04:31.403Z,5.75
2018-12-19T08:06:58.805Z,5.40
2018-12-19T08:09:26.202Z,7.10
2018-12-19T08:11:53.590Z,6.70
2018-12-19T08:14:20.968Z,6.25
2018-12-19T08:16:48.346Z,5.90
2018-12-19T08:19:15.719Z,7.37
2018-12-19T08:21:43.178Z,5.92
2018-12-19T08:24:10.558Z,6.12
2018-12-19T08:26:37.955Z,6.53
2018-12-19T08:29:05.354Z,6.15
2018-12-19T08:31:32.738Z,6.35
2018-12-19T08:34:00.521Z,7.47
2018-12-19T08:36:27.924Z,6.28
2018-12-19T08:38:55.370Z,7.05
2018-12-19T08:41:22.744Z,7.62
2018-12-19T08:43:50.150Z,8.98
2018-12-19T08:46:17.518Z,8.40
2018-12-19T08:48:44.980Z,6.90
2018-12-19T08:51:12.466Z,7.67
2018-12-19T08:53:39.843Z,7.00
2018-12-19T08:56:07.230Z,6.15
2018-12-19T08:58:34.602Z,7.50
2018-12-19T09:01:01.973Z,7.35
2018-12-19T09:03:29.370Z,8.53
2018-12-19T09:05:56.734Z,7.47
2018-12-19T09:08:24.110Z,6.62
2018-12-19T09:10:51.483Z,7.33
2018-12-19T09:13:18.866Z,6.92
2018-12-19T09:15:50.767Z,6.33
2018-12-19T09:18:19.078Z,7.53
2018-12-19T09:20:46.697Z,7.03
2018-12-19T09:23:14.610Z,6.05
2018-12-19T09:25:41.997Z,5.50
2018-12-19T09:28:09.405Z,6.03
2018-12-19T09:30:36.784Z,7.03
2018-12-19T09:33:04.172Z,5.90
2018-12-19T09:35:31.642Z,7.25
2018-12-19T09:37:59.013Z,6.62
2018-12-19T09:40:26.382Z,5.80
2018-12-19T09:42:53.747Z,7.72
2018-12-19T09:45:21.110Z,6.03
2018-12-19T09:47:48.502Z,7.37
2018-12-19T09:50:15.893Z,7.00
2018-12-19T09:52:43.350Z,5.80
2018-12-19T09:55:10.718Z,6.42
2018-12-19T09:57:38.416Z,6.12
2018-12-19T10:00:10.318Z,7.15
2018-12-19T10:02:37.691Z,6.03
2018-12-19T10:05:05.082Z,5.87
2018-12-19T10:07:32.458Z,6.42
2018-12-19T10:09:59.896Z,6.17
2018-12-19T10:12:27.247Z,5.83
2018-12-19T10:14:54.619Z,5.90
2018-12-19T10:17:21.999Z,5.55
2018-12-19T10:19:49.374Z,7.03
2018-12-19T10:22:18.658Z,6.53
2018-12-19T10:24:51.530Z,6.53
2018-12-19T10:27:21.489Z,6.35
2018-12-19T10:29:48.966Z,6.33
2018-12-19T10:32:16.359Z,6.28
2018-12-19T10:34:43.864Z,6.80
2018-12-19T10:37:11.254Z,6.60
2018-12-19T10:39:38.643Z,6.67
2018-12-19T10:42:06.016Z,6.58
2018-12-19T10:44:33.378Z,7.12
2018-12-19T10:47:00.770Z,7.58
2018-12-19T10:49:28.182Z,8.03
2018-12-19T10:51:55.565Z,7.30
2018-12-19T10:54:22.931Z,6.95
2018-12-19T10:56:50.327Z,6.65
2018-12-19T10:59:17.707Z,5.92
2018-12-19T11:01:45.078Z,6.75
2018-12-19T11:04:12.475Z,7.37
2018-12-19T11:06:39.947Z,7.67
2018-12-19T11:09:07.522Z,6.60
2018-12-19T11:11:34.914Z,6.85
2018-12-19T11:14:02.306Z,6.58
2018-12-19T11:16:29.702Z,7.50
2018-12-19T11:18:57.078Z,6.95
2018-12-19T11:21:24.467Z,6.90
2018-12-19T11:23:51.875Z,7.60
2018-12-19T11:26:19.322Z,7.33
2018-12-19T11:28:46.698Z,8.38
2018-12-19T11:31:14.070Z,9.28
2018-12-19T11:33:41.467Z,8.73
2018-12-19T11:36:10.165Z,8.65
2018-12-19T11:38:37.728Z,7.80
2018-12-19T11:41:05.107Z,7.92
2018-12-19T11:43:32.485Z,7.83
2018-12-19T11:45:59.866Z,6.60
2018-12-19T11:48:27.242Z,6.95
2018-12-19T11:50:54.685Z,8.33
2018-12-19T11:53:22.062Z,6.95
2018-12-19T11:55:49.450Z,7.15
2018-12-19T11:58:16.827Z,6.08
2018-12-19T12:00:44.215Z,6.37
2018-12-19T12:03:11.594Z,6.97
2018-12-19T12:05:38.969Z,6.10
2018-12-19T12:08:06.414Z,6.45
2018-12-19T12:10:33.798Z,7.35
2018-12-19T12:13:01.175Z,7.28
2018-12-19T12:15:28.551Z,6.87
2018-12-19T12:17:55.922Z,7.12
2018-12-19T12:20:23.306Z,5.90
2018-12-19T12:22:50.674Z,6.95
2018-12-19T12:25:18.041Z,7.00
2018-12-19T12:27:45.414Z,6.92
2018-12-19T12:30:12.810Z,5.97
2018-12-19T12:32:40.220Z,7.10
2018-12-19T12:35:07.726Z,6.20
2018-12-19T12:37:35.121Z,6.55
2018-12-19T12:40:03.021Z,6.40
2018-12-19T12:42:30.453Z,6.87
2018-12-19T12:44:57.962Z,6.67
2018-12-19T12:47:25.473Z,6.10
2018-12-19T12:49:52.963Z,6.15
2018-12-19T12:52:20.354Z,6.25
2018-12-19T12:54:47.750Z,6.53
2018-12-19T12:57:15.118Z,6.58
2018-12-19T12:59:42.527Z,5.70
2018-12-19T13:02:09.910Z,7.30
2018-12-19T13:04:37.278Z,6.35
2018-12-19T13:07:04.641Z,5.45
2018-12-19T13:09:32.014Z,6.15
2018-12-19T13:11:59.387Z,6.72
2018-12-19T13:14:26.874Z,5.22
2018-12-19T13:16:54.262Z,6.33
2018-12-19T13:19:21.634Z,6.37
2018-12-19T13:21:49.040Z,7.62
2018-12-19T13:24:16.430Z,7.90
2018-12-19T13:26:43.800Z,6.45
2018-12-19T13:29:11.173Z,6.78
2018-12-19T13:31:38.538Z,7.35
2018-12-19T13:34:05.906Z,6.45
2018-12-19T13:36:33.275Z,6.80
2018-12-19T13:39:00.660Z,7.30
2018-12-19T13:41:28.026Z,5.97
2018-12-19T13:43:55.418Z,6.05
2018-12-19T13:46:22.786Z,5.92
2018-12-19T13:48:50.159Z,5.75
2018-12-19T13:51:17.527Z,6.90
2018-12-19T13:53:44.918Z,7.05
2018-12-19T13:56:12.290Z,6.78
2018-12-19T13:58:39.786Z,7.12
2018-12-19T14:01:07.182Z,5.42
2018-12-19T14:03:34.554Z,6.90
2018-12-19T14:06:01.927Z,6.05
2018-12-19T14:08:29.302Z,5.75
2018-12-19T14:10:56.710Z,5.53
2018-12-19T14:13:24.083Z,6.90
2018-12-19T14:15:51.455Z,6.65
2018-12-19T14:18:18.822Z,5.55
2018-12-19T14:20:46.216Z,4.92
2018-12-19T14:23:13.587Z,5.05
2018-12-19T14:25:41.039Z,4.95
2018-12-19T14:28:08.446Z,4.17
2018-12-19T14:30:35.893Z,4.97
2018-12-19T14:33:03.315Z,4.92
2018-12-19T14:35:30.722Z,4.40
2018-12-19T14:37:58.087Z,5.28
2018-12-19T14:40:25.486Z,4.78
2018-12-19T14:42:52.878Z,5.05
2018-12-19T14:45:20.245Z,4.87
2018-12-19T14:47:47.618Z,5.60
2018-12-19T14:50:14.987Z,4.30
2018-12-19T14:52:42.355Z,5.22
2018-12-19T14:55:09.749Z,4.50
2018-12-19T14:57:37.124Z,5.33
2018-12-19T15:00:07.939Z,6.30
2018-12-19T15:02:35.306Z,6.97
2018-12-19T15:05:02.718Z,5.12
2018-12-19T15:07:30.085Z,6.40
2018-12-19T15:09:57.481Z,6.90
2018-12-19T15:12:25.843Z,5.85
2018-12-19T15:14:53.626Z,5.40
2018-12-19T15:17:21.082Z,5.85
2018-12-19T15:19:48.455Z,5.45
2018-12-19T15:22:15.844Z,6.03
2018-12-19T15:24:43.235Z,7.33
2018-12-19T15:27:10.754Z,6.60
2018-12-19T15:29:38.494Z,6.08
2018-12-19T15:32:06.014Z,5.50
2018-12-19T15:34:33.386Z,6.45
2018-12-19T15:37:00.842Z,6.45
2018-12-19T15:39:28.332Z,5.33
2018-12-19T15:41:55.718Z,5.72
2018-12-19T15:44:23.126Z,5.83
2018-12-19T15:46:50.518Z,5.65
2018-12-19T15:49:17.987Z,5.70
2018-12-19T15:51:45.438Z,6.90
2018-12-19T15:54:12.819Z,6.35
2018-12-19T15:56:40.276Z,6.90
2018-12-19T15:59:07.661Z,5.97
2018-12-19T16:01:35.178Z,7.35
2018-12-19T16:04:02.555Z,6.25
2018-12-19T16:06:29.931Z,6.47
2018-12-19T16:08:57.308Z,6.78
2018-12-19T16:11:24.694Z,6.30
2018-12-19T16:13:52.156Z,5.47
2018-12-19T16:16:19.622Z,6.33
2018-12-19T16:18:46.994Z,7.12
2018-12-19T16:21:14.473Z,7.55
2018-12-19T16:23:41.834Z,6.83
2018-12-19T16:26:09.230Z,7.35
2018-12-19T16:28:36.598Z,7.50
2018-12-19T16:31:03.998Z,6.97
2018-12-19T16:33:31.363Z,8.08
2018-12-19T16:35:58.826Z,7.40
2018-12-19T16:38:26.210Z,6.80
2018-12-19T16:40:53.610Z,7.55
2018-12-19T16:43:20.999Z,5.90
2018-12-19T16:45:48.366Z,7.45
2018-12-19T16:48:16.259Z,7.60
2018-12-19T16:50:43.636Z,6.53
2018-12-19T16:53:11.021Z,8.00
2018-12-19T16:55:38.412Z,7.17
2018-12-19T16:58:05.799Z,7.50
2018-12-19T17:00:33.170Z,8.20
2018-12-19T17:03:00.559Z,7.80
2018-12-19T17:05:27.979Z,7.40
2018-12-19T17:07:55.342Z,7.40
2018-12-19T17:10:22.719Z,6.17
2018-12-19T17:12:52.831Z,7.72
2018-12-19T17:15:19.442Z,6.58
2018-12-19T17:17:46.814Z,7.62
2018-12-19T17:20:14.210Z,7.37
2018-12-19T17:22:41.578Z,7.65
2018-12-19T17:25:08.958Z,7.03
2018-12-19T17:27:36.323Z,6.55
2018-12-19T17:30:04.125Z,6.50
2018-12-19T17:32:31.631Z,7.55
2018-12-19T17:34:59.002Z,6.22
2018-12-19T17:37:26.434Z,8.08
2018-12-19T17:39:53.811Z,7.67
2018-12-19T17:42:21.183Z,7.33
2018-12-19T17:44:48.665Z,7.28
2018-12-19T17:47:16.033Z,6.95
2018-12-19T17:49:43.514Z,6.55
2018-12-19T17:52:10.875Z,5.97
2018-12-19T17:54:38.254Z,6.17
2018-12-19T17:57:05.713Z,6.40
2018-12-19T17:59:33.074Z,6.12
2018-12-19T18:02:00.463Z,6.05
2018-12-19T18:04:27.834Z,5.40
2018-12-19T18:06:55.231Z,5.70
2018-12-19T18:09:23.148Z,6.15
2018-12-19T18:11:50.606Z,6.75
2018-12-19T18:14:17.970Z,7.55
2018-12-19T18:16:45.346Z,6.60
2018-12-19T18:19:12.720Z,7.70
2018-12-19T18:21:40.099Z,7.45
2018-12-19T18:24:07.469Z,6.47
2018-12-19T18:26:34.858Z,6.28
2018-12-19T18:29:02.251Z,7.15
2018-12-19T18:31:29.647Z,7.20
2018-12-19T18:33:57.006Z,7.40
2018-12-19T18:36:24.398Z,6.90
2018-12-19T18:38:51.771Z,6.35
2018-12-19T18:41:19.142Z,6.67
2018-12-19T18:43:46.511Z,6.85
2018-12-19T18:46:13.887Z,7.28
2018-12-19T18:48:41.250Z,7.12
2018-12-19T18:51:08.630Z,6.62
2018-12-19T18:53:36.003Z,6.72
2018-12-19T18:56:03.417Z,6.10
2018-12-19T18:58:30.848Z,7.78
2018-12-19T19:00:58.265Z,6.85
2018-12-19T19:03:25.752Z,6.45
2018-12-19T19:05:53.215Z,6.45
2018-12-19T19:08:20.630Z,6.45
2018-12-19T19:10:48.030Z,5.20
2018-12-19T19:13:19.646Z,6.62
2018-12-19T19:15:44.779Z,7.08
2018-12-19T19:18:12.198Z,6.58
2018-12-19T19:20:39.575Z,6.10
2018-12-19T19:23:06.944Z,6.33
2018-12-19T19:25:34.403Z,5.65
2018-12-19T19:28:01.766Z,6.35
2018-12-19T19:30:29.176Z,5.83
2018-12-19T19:32:56.543Z,5.83
2018-12-19T19:35:23.919Z,5.30
2018-12-19T19:37:51.294Z,5.22
2018-12-19T19:40:18.702Z,7.40
2018-12-19T19:42:46.062Z,5.20
2018-12-19T19:45:13.491Z,4.75
2018-12-19T19:47:40.867Z,4.05
2018-12-19T19:50:08.267Z,4.50
2018-12-19T19:52:35.655Z,3.95
2018-12-19T19:55:03.071Z,4.12
2018-12-19T19:57:30.470Z,4.25
2018-12-19T19:59:57.842Z,4.03
2018-12-19T20:02:25.230Z,3.65
2018-12-19T20:04:52.600Z,4.55
2018-12-19T20:07:19.958Z,4.83
2018-12-19T20:09:47.375Z,3.60
2018-12-19T20:12:14.750Z,3.10
2018-12-19T20:14:42.146Z,4.00
2018-12-19T20:17:09.555Z,3.90
2018-12-19T20:19:36.921Z,3.20
2018-12-19T20:22:04.382Z,2.92
2018-12-19T20:24:31.829Z,3.90
2018-12-19T20:26:59.214Z,3.65
2018-12-19T20:29:26.586Z,3.42
2018-12-19T20:31:54.049Z,3.27
2018-12-19T20:34:21.410Z,3.40
2018-12-19T20:36:48.782Z,3.55
2018-12-19T20:39:16.139Z,2.75
2018-12-19T20:41:43.507Z,3.37
2018-12-19T20:44:10.909Z,3.70
2018-12-19T20:46:38.311Z,3.33
2018-12-19T20:49:05.762Z,3.05
2018-12-19T20:51:33.154Z,3.92
2018-12-19T20:54:00.530Z,3.60
2018-12-19T20:56:27.912Z,3.00
2018-12-19T20:58:55.387Z,3.62
2018-12-19T21:01:22.838Z,4.10
2018-12-19T21:03:50.223Z,4.08
2018-12-19T21:06:17.624Z,4.20
2018-12-19T21:08:44.988Z,3.35
2018-12-19T21:11:12.442Z,4.37
2018-12-19T21:13:46.540Z,3.45
2018-12-19T21:16:09.162Z,4.17
2018-12-19T21:18:42.407Z,3.22
2018-12-19T21:21:09.821Z,3.72
2018-12-19T21:23:37.214Z,3.15
2018-12-19T21:26:04.610Z,4.35
2018-12-19T21:28:31.986Z,4.60
2018-12-19T21:30:59.370Z,3.65
2018-12-19T21:33:26.737Z,3.90
2018-12-19T21:35:54.150Z,4.90
2018-12-19T21:38:21.564Z,3.67
2018-12-19T21:40:49.868Z,3.70
2018-12-19T21:43:17.270Z,4.58
2018-12-19T21:45:51.619Z,4.47
2018-12-19T21:48:14.091Z,4.50
2018-12-19T21:50:41.458Z,4.00
2018-12-19T21:53:08.830Z,3.72
2018-12-19T21:55:36.193Z,3.77
2018-12-19T21:58:03.598Z,3.98
2018-12-19T22:00:31.647Z,4.05
2018-12-19T22:03:00.934Z,3.72
2018-12-19T22:05:28.326Z,4.60
2018-12-19T22:07:55.691Z,3.92
2018-12-19T22:10:23.054Z,4.28
2018-12-19T22:12:50.426Z,3.72
2018-12-19T22:15:17.799Z,4.05
2018-12-19T22:17:48.046Z,4.08
2018-12-19T22:20:15.475Z,3.62
2018-12-19T22:22:42.937Z,4.35
2018-12-19T22:25:10.448Z,3.77
2018-12-19T22:27:37.943Z,3.90
2018-12-19T22:30:07.084Z,4.15
2018-12-19T22:32:34.519Z,3.85
2018-12-19T22:35:01.959Z,3.05
2018-12-19T22:37:29.495Z,3.30
2018-12-19T22:39:56.886Z,4.42
2018-12-19T22:42:24.351Z,3.87
2018-12-19T22:44:51.759Z,2.70
2018-12-19T22:47:19.186Z,3.80
2018-12-19T22:49:46.599Z,4.12
2018-12-19T22:52:14.094Z,3.77
2018-12-19T22:54:41.538Z,3.45
2018-12-19T22:57:09.111Z,3.77
2018-12-19T22:59:36.607Z,3.33
2018-12-19T23:02:09.926Z,4.67
2018-12-19T23:04:37.315Z,3.58
2018-12-19T23:07:04.714Z,4.45
2018-12-19T23:09:32.162Z,4.50
2018-12-19T23:11:59.744Z,3.27
2018-12-19T23:14:27.191Z,3.60
2018-12-19T23:16:54.649Z,2.70
2018-12-19T23:19:22.140Z,2.90
2018-12-19T23:21:49.736Z,4.22
2018-12-19T23:24:17.219Z,3.55
2018-12-19T23:26:44.696Z,3.17
2018-12-19T23:29:12.147Z,3.30
2018-12-19T23:31:39.594Z,3.55
2018-12-19T23:34:07.038Z,3.52
2018-12-19T23:36:34.455Z,3.37
2018-12-19T23:39:01.814Z,2.67
2018-12-19T23:41:30.914Z,3.17
2018-12-19T23:43:58.458Z,3.47
2018-12-19T23:46:25.951Z,3.77
2018-12-19T23:48:53.363Z,3.80
2018-12-19T23:51:20.738Z,3.12
2018-12-19T23:53:48.201Z,3.05
2018-12-19T23:56:15.619Z,2.77
2018-12-19T23:58:43.015Z,2.95
